Flight Track Log - Related Links

Times and Time Zones

All times are in EDT time to prevent confusion due to time zone crossing. See the TAM3812 flight status page for this flight to view local times or setup timezone preferences in your user account.

Time Position Orientation Groundspeed Altitude Reporting Facility
EDT Latitude Longitude Course Direction KTS MPH feet Rate Location/Type
Wed 08:11:33 PM -23.6260 -46.6580 180° South  Level FlightAware ADS-B
Wed 08:12:30 PM -23.6280 -46.6560 138° Southeast 357 Level FlightAware ADS-B
Wed 08:15:00 PM -23.4425 -46.8955 310° West  Level Estimated
Wed 08:16:00 PM -23.3682 -46.9911 310° West  Level Estimated
Wed 08:17:00 PM -23.2938 -47.0866 310° West  Level Estimated
Wed 08:18:00 PM -23.2194 -47.1819 310° West  Level Estimated
Wed 08:19:00 PM -23.1450 -47.2772 310° West  Level Estimated
Wed 08:20:00 PM -23.0704 -47.3724 310° West  Level Estimated
Wed 08:20:58 PM -23.6240 -46.6580 310° West  Level FlightAware ADS-B
Wed 08:21:00 PM -22.9959 -47.4675 310° West  Level Estimated
Wed 08:21:38 PM -23.5970 -46.6870 315° West 211 243 3,600  Level FlightAware ADS-B
Wed 08:22:10 PM -23.6100 -46.7170 245° Southwest 229 264 4,600 2,040 Climbing FlightAware ADS-B
Wed 08:22:28 PM -23.6240 -46.7310 222° Southwest 227 261 5,300 2,250 Climbing FlightAware ADS-B
Wed 08:22:50 PM -23.6430 -46.7480 219° Southwest 233 268 6,100 1,875 Climbing FlightAware ADS-B
Wed 08:23:16 PM -23.6650 -46.7690 221° Southwest 248 285 6,800 1,320 Climbing FlightAware ADS-B
Wed 08:23:40 PM -23.6760 -46.7980 247° West 276 318 7,200 1,500 Climbing FlightAware ADS-B
Wed 08:24:08 PM -23.6860 -46.8380 255° West 296 341 8,100 2,192 Climbing FlightAware ADS-B
Wed 08:24:32 PM -23.6810 -46.8680 280° West 296 341 9,100 2,314 Climbing FlightAware ADS-B
Wed 08:25:18 PM -23.6560 -46.9380 291° West 324 373 10,800 2,160 Climbing FlightAware ADS-B
Wed 08:26:12 PM -23.6260 -47.0270 290° West 347 399 12,700 2,019 Climbing FlightAware ADS-B
Wed 08:27:05 PM -23.5960 -47.1150 290° West 362 417 14,400 2,294 Climbing FlightAware ADS-B
Wed 08:27:54 PM -23.5680 -47.2000 290° West 357 411 16,600 2,495 Climbing FlightAware ADS-B
Wed 08:28:46 PM -23.5390 -47.2850 290° West 353 406 18,600 1,891 Climbing FlightAware ADS-B
Wed 08:29:26 PM -23.5160 -47.3530 290° West 369 425 19,500 1,622 Climbing FlightAware ADS-B
Wed 08:30:00 PM -23.4860 -47.4090 300° West 370 426 20,600 1,705 Climbing FlightAware ADS-B
Wed 08:30:54 PM -23.4300 -47.4910 307° West 382 440 22,000 1,615 Climbing FlightAware ADS-B
Wed 08:31:44 PM -23.3780 -47.5680 306° West 380 437 23,400 1,132 Climbing FlightAware ADS-B
Wed 08:32:40 PM -23.3170 -47.6580 306° West 408 470 24,000 1,023 Climbing FlightAware ADS-B
Wed 08:33:12 PM -23.2810 -47.7100 307° West 408 470 24,900 1,277 Climbing FlightAware ADS-B
Wed 08:34:14 PM -23.2090 -47.8150 307° West 422 486 26,000 1,263 Climbing FlightAware ADS-B
Wed 08:35:06 PM -23.1490 -47.9040 306° West 422 486 27,300 1,500 Climbing FlightAware ADS-B
Wed 08:35:38 PM -23.1120 -47.9570 307° West 421 484 28,100 1,345 Climbing FlightAware ADS-B
Wed 08:36:04 PM -23.0860 -47.9960 306° West 421 484 28,600 1,147 Climbing FlightAware ADS-B
Wed 08:36:46 PM -23.0330 -48.0720 307° West 426 490 29,400 857 Climbing FlightAware ADS-B
Wed 08:37:42 PM -22.9670 -48.1690 306° West 444 511 30,000 716 Climbing FlightAware ADS-B
Wed 08:38:35 PM -22.9000 -48.2650 307° West 453 521 30,700 941 Climbing FlightAware ADS-B
Wed 08:39:24 PM -22.8370 -48.3560 307° West 453 521 31,600 1,176 Climbing FlightAware ADS-B
Wed 08:40:17 PM -22.7720 -48.4510 307° West 449 517 32,700 1,067 Climbing FlightAware ADS-B
Wed 08:40:54 PM -22.7260 -48.5160 307° West 450 518 33,200 988 Climbing FlightAware ADS-B
Wed 08:41:42 PM -22.6640 -48.6060 307° West 448 516 34,100 1,011 Climbing FlightAware ADS-B
Wed 08:42:29 PM -22.6070 -48.6880 307° West 447 514 34,800 1,000 Climbing FlightAware ADS-B
Wed 08:43:24 PM -22.5410 -48.7830 307° West 441 507 35,800 667 Climbing FlightAware ADS-B
Wed 08:44:17 PM -22.4740 -48.8780 307° West 440 506 36,000 112 Climbing FlightAware ADS-B
Wed 08:45:11 PM -22.4080 -48.9740 307° West 447 514 36,000  Level FlightAware ADS-B
Wed 08:46:00 PM -22.3470 -49.0600 307° West 447 514 36,000  Level FlightAware ADS-B
Wed 08:46:31 PM -22.3070 -49.1150 308° West 450 518 36,000  Level FlightAware ADS-B
Wed 08:47:31 PM -22.2190 -49.2130 314° West 452 520 36,000  Level FlightAware ADS-B
Wed 08:48:23 PM -22.1430 -49.2980 314° West 451 519 36,000  Level FlightAware ADS-B
Wed 08:49:20 PM -22.0620 -49.3890 314° West 450 518 36,000  Level FlightAware ADS-B
Wed 08:50:08 PM -21.9930 -49.4660 314° West 450 518 36,000  Level FlightAware ADS-B
Wed 08:50:45 PM -21.9400 -49.5250 314° West 451 519 36,000  Level FlightAware ADS-B
Wed 08:51:20 PM -21.8890 -49.5820 314° West 451 519 36,000  Level FlightAware ADS-B
Wed 08:52:08 PM -21.8190 -49.6600 314° West 448 516 36,000  Level FlightAware ADS-B
Wed 08:52:39 PM -21.7750 -49.7080 315° West 446 513 36,000  Level FlightAware ADS-B
Wed 08:53:46 PM -21.6790 -49.8150 314° West 446 513 36,000  Level FlightAware ADS-B
Wed 08:54:38 PM -21.6000 -49.9020 314° West 448 516 36,000  Level FlightAware ADS-B
Wed 08:55:10 PM -21.5540 -49.9530 314° West 449 517 36,000  Level FlightAware ADS-B
Wed 08:56:01 PM -21.4810 -50.0330 314° West 446 513 36,000  Level FlightAware ADS-B
Wed 08:56:44 PM -21.4180 -50.1030 314° West 449 517 36,000  Level FlightAware ADS-B
Wed 08:57:32 PM -21.3490 -50.1800 314° West 449 517 36,000  Level FlightAware ADS-B
Wed 08:58:33 PM -21.2600 -50.2790 314° West 449 517 36,000  Level FlightAware ADS-B
Wed 08:59:24 PM -21.1870 -50.3600 314° West 448 516 36,000  Level FlightAware ADS-B
Wed 09:00:11 PM -21.1200 -50.4340 314° West 448 516 36,000  Level FlightAware ADS-B
Wed 09:01:08 PM -21.0380 -50.5250 314° West 450 518 36,000  Level FlightAware ADS-B
Wed 09:02:00 PM -20.9610 -50.6090 314° West 449 517 36,000  Level FlightAware ADS-B
Wed 09:02:36 PM -20.9100 -50.6660 314° West 448 516 36,000  Level FlightAware ADS-B
Wed 09:03:05 PM -20.8680 -50.7120 314° West 450 518 36,000  Level FlightAware ADS-B
Wed 09:03:52 PM -20.7990 -50.7860 315° West 453 521 36,000  Level FlightAware ADS-B
Wed 09:04:27 PM -20.7510 -50.8370 315° West 453 521 36,000  Level FlightAware ADS-B
Wed 09:05:12 PM -20.6810 -50.9110 315° West 452 520 36,000  Level FlightAware ADS-B
Wed 09:05:57 PM -20.6160 -50.9810 315° West 452 520 36,000  Level FlightAware ADS-B
Wed 09:06:42 PM -20.5520 -51.0490 315° West 453 521 36,000  Level FlightAware ADS-B
Wed 09:07:42 PM -20.4630 -51.1450 315° West 453 521 36,000  Level FlightAware ADS-B
Wed 09:08:32 PM -20.3870 -51.2250 315° West 454 522 36,000  Level FlightAware ADS-B
Wed 09:09:07 PM -20.3380 -51.2770 315° West 455 524 36,000  Level FlightAware ADS-B
Wed 09:09:48 PM -20.2750 -51.3450 315° West 456 525 36,000  Level FlightAware ADS-B
Wed 09:10:42 PM -20.1910 -51.4360 315° West 454 522 36,000  Level FlightAware ADS-B
Wed 09:10:58 PM -20.1680 -51.4600 316° Northwest 453 521 36,000  Level FlightAware ADS-B
Wed 09:11:54 PM -20.0840 -51.5510 314° West 451 519 36,000  Level FlightAware ADS-B
Wed 09:12:40 PM -20.0160 -51.6230 315° West 447 514 36,000  Level FlightAware ADS-B
Wed 09:13:32 PM -19.9410 -51.7040 315° West 449 517 36,000  Level FlightAware ADS-B
Wed 09:14:26 PM -19.8610 -51.7890 315° West 449 517 36,000  Level FlightAware ADS-B
Wed 09:15:23 PM -19.7780 -51.8780 315° West 451 519 36,000  Level FlightAware ADS-B
Wed 09:16:19 PM -19.6960 -51.9650 315° West 450 518 36,000  Level FlightAware ADS-B
Wed 09:17:08 PM -19.6220 -52.0430 315° West 453 521 36,000  Level FlightAware ADS-B
Wed 09:18:00 PM -19.5450 -52.1250 315° West 454 522 36,000  Level FlightAware ADS-B
Wed 09:19:01 PM -19.4550 -52.2200 315° West 453 521 36,000  Level FlightAware ADS-B
Wed 09:19:32 PM -19.4070 -52.2710 315° West 454 522 36,000  Level FlightAware ADS-B
Wed 09:20:06 PM -19.3570 -52.3230 316° Northwest 453 521 36,000  Level FlightAware ADS-B
Wed 09:21:04 PM -19.2720 -52.4140 315° West 453 521 36,000  Level FlightAware ADS-B
Wed 09:21:36 PM -19.2240 -52.4640 315° West 454 522 36,000  Level FlightAware ADS-B
Wed 09:22:36 PM -19.1330 -52.5590 315° West 454 522 36,000  Level FlightAware ADS-B
Wed 09:23:16 PM -19.0740 -52.6210 315° West 454 522 36,000  Level FlightAware ADS-B
Wed 09:24:06 PM -19.0000 -52.6990 315° West 455 524 36,000  Level FlightAware ADS-B
Wed 09:25:06 PM -18.9100 -52.7930 315° West 456 525 36,000  Level FlightAware ADS-B
Wed 09:25:54 PM -18.8390 -52.8680 315° West 456 525 36,000  Level FlightAware ADS-B
Wed 09:26:46 PM -18.7600 -52.9500 315° West 455 524 36,000  Level FlightAware ADS-B
Wed 09:27:38 PM -18.6830 -53.0310 315° West 454 522 36,000  Level FlightAware ADS-B
Wed 09:28:11 PM -18.6340 -53.0820 315° West 455 524 36,000  Level FlightAware ADS-B
Wed 09:29:11 PM -18.5450 -53.1740 316° Northwest 456 525 36,000  Level FlightAware ADS-B
Wed 09:30:10 PM -18.4540 -53.2700 315° West 458 527 36,000  Level FlightAware ADS-B
Wed 09:30:38 PM -18.4130 -53.3120 316° Northwest 458 527 36,000  Level FlightAware ADS-B
Wed 09:31:15 PM -18.3560 -53.3710 316° Northwest 458 527 36,000  Level FlightAware ADS-B
Wed 09:31:42 PM -18.3160 -53.4130 315° West 456 525 36,000  Level FlightAware ADS-B
Wed 09:32:34 PM -18.2360 -53.4950 316° Northwest 456 525 36,000  Level FlightAware ADS-B
Wed 09:33:24 PM -18.1620 -53.5730 315° West 454 522 36,000  Level FlightAware ADS-B
Wed 09:34:09 PM -18.0930 -53.6430 316° Northwest 456 525 36,000  Level FlightAware ADS-B
Wed 09:34:45 PM -18.0400 -53.6980 315° West 455 524 36,000  Level FlightAware ADS-B
Wed 09:35:17 PM -17.9920 -53.7480 315° West 456 525 36,000  Level FlightAware ADS-B
Wed 09:36:05 PM -17.9190 -53.8230 316° Northwest 458 527 36,000  Level FlightAware ADS-B
Wed 09:36:45 PM -17.8590 -53.8850 315° West 459 528 36,000  Level FlightAware ADS-B
Wed 09:37:41 PM -17.7730 -53.9740 315° West 459 528 36,000  Level FlightAware ADS-B
Wed 09:38:25 PM -17.7070 -54.0410 316° Northwest 459 528 36,000  Level FlightAware ADS-B
Wed 09:38:57 PM -17.6580 -54.0920 315° West 460 529 36,000  Level FlightAware ADS-B
Wed 09:39:53 PM -17.5730 -54.1780 316° Northwest 457 526 36,000  Level FlightAware ADS-B
Wed 09:40:35 PM -17.5110 -54.2420 315° West 455 524 36,000  Level FlightAware ADS-B
Wed 09:41:01 PM -17.4720 -54.2820 316° Northwest 453 521 36,000  Level FlightAware ADS-B
Wed 09:42:05 PM -17.3750 -54.3800 316° Northwest 450 518 36,000  Level FlightAware ADS-B
Wed 09:43:00 PM -17.3040 -54.4550 315° West 449 517 36,000  Level FlightAware ADS-B
Wed 09:43:24 PM -17.2740 -54.4860 315° West 449 517 36,000  Level FlightAware ADS-B
Wed 09:44:24 PM -17.1990 -54.5650 315° West 449 517 36,000  Level FlightAware ADS-B
Wed 09:45:12 PM -17.1390 -54.6270 315° West 449 517 36,000  Level FlightAware ADS-B
Wed 09:46:00 PM -17.0790 -54.6900 315° West 449 517 36,000  Level FlightAware ADS-B
Wed 09:47:00 PM -17.0040 -54.7680 315° West 449 517 36,000  Level FlightAware ADS-B
Wed 09:48:01 PM -16.9280 -54.8480 315° West 449 517 36,000  Level FlightAware ADS-B
Wed 09:48:51 PM -16.8660 -54.9130 315° West 449 517 36,000  Level FlightAware ADS-B
Wed 09:49:51 PM -16.7910 -54.9910 315° West 449 517 36,000  Level FlightAware ADS-B
Wed 09:50:27 PM -16.7460 -55.0380 315° West 449 517 36,000  Level FlightAware ADS-B
Wed 09:51:03 PM -16.7010 -55.0850 315° West 449 517 36,000  Level FlightAware ADS-B
Wed 09:51:51 PM -16.6410 -55.1480 315° West 449 517 36,000  Level FlightAware ADS-B
Wed 09:52:16 PM -16.6100 -55.1800 315° West 449 517 36,000  Level FlightAware ADS-B
Wed 09:55:00 PM -16.4015 -55.3852 317° Northwest  Level Estimated
Wed 09:56:00 PM -16.3252 -55.4602 317° Northwest  Level Estimated
Wed 09:57:00 PM -16.2488 -55.5351 317° Northwest  Level Estimated
Wed 09:58:00 PM -16.1724 -55.6099 317° Northwest  Level Estimated
Wed 09:59:00 PM -16.0960 -55.6847 317° Northwest  Level Estimated
Wed 10:00:00 PM -16.0196 -55.7594 317° Northwest  Level Estimated
Wed 10:01:00 PM -15.9431 -55.8341 317° Northwest  Level Estimated
Wed 10:02:00 PM -15.8666 -55.9087 317° Northwest  Level Estimated
Wed 10:03:00 PM -15.7901 -55.9833 317° Northwest  Level Estimated
Wed 10:04:00 PM -15.7135 -56.0578 317° Northwest  Level Estimated
Wed 10:05:00 PM -15.6529 -56.1167 317° Northwest  Level Estimated
Wed 10:06:00 PM -15.6529 -56.1167 136° Southeast  Level Estimated
Wed 10:07:00 PM -15.6529 -56.1167 136° Southeast  Level Estimated
Wed 10:08:00 PM -15.6529 -56.1167 136° Southeast  Level Estimated
Wed 10:09:00 PM -15.6529 -56.1167 136° Southeast  Level Estimated
Wed 10:10:00 PM -15.6529 -56.1167 136° Southeast  Level Estimated
Wed 10:11:00 PM -15.6529 -56.1167 136° Southeast  Level Estimated
Wed 10:12:00 PM -15.6529 -56.1167 136° Southeast  Level Estimated
Wed 10:13:00 PM -15.6529 -56.1167 136° Southeast  Level Estimated
Wed 10:14:00 PM -15.6529 -56.1167 136° Southeast  Level Estimated
Wed 10:15:00 PM -15.6529 -56.1167 136° Southeast  Level Estimated
Wed 10:16:00 PM -15.6529 -56.1167 136° Southeast  Level Estimated
Wed 10:17:00 PM -15.6529 -56.1167 136° Southeast  Level Estimated
Wed 10:18:00 PM -15.6529 -56.1167 136° Southeast  Level Estimated
Wed 10:19:00 PM -15.6529 -56.1167 136° Southeast  Level Estimated
Wed 10:20:00 PM -15.6529 -56.1167 136° Southeast  Level Estimated
Wed 10:21:00 PM -15.6529 -56.1167 136° Southeast  Level Estimated
Wed 10:22:00 PM -15.6529 -56.1167 136° Southeast  Level Estimated
Wed 10:23:00 PM -15.6529 -56.1167 136° Southeast  Level Estimated
Wed 10:24:00 PM -15.6529 -56.1167 136° Southeast  Level Estimated
Wed 10:25:00 PM -15.6529 -56.1167 136° Southeast  Level Estimated
Wed 10:26:00 PM -15.6529 -56.1167 136° Southeast  Level Estimated
Wed 10:27:00 PM -15.6529 -56.1167 136° Southeast  Level Estimated
Wed 10:28:00 PM -15.6529 -56.1167 136° Southeast  Level Estimated
Wed 10:29:00 PM -15.6529 -56.1167 136° Southeast  Level Estimated
Wed 10:30:00 PM -15.6529 -56.1167 136° Southeast  Level Estimated

Login

Don't have an account? Register now (free) for customized features, flight alerts, and more!